Time;durP1;ratioP1;P1;durP2;ratioP2;P2;SDS_P1;SDS_P2;PMS_P1;PMS_P2;Temp;Humidity;BMP_temperature;BMP_pressure;BME280_temperature;BME280_humidity;BME280_pressure;Samples;Min_cycle;Max_cycle;Signal;HPM_P1;HPM_P2
2022/10/07 00:01:10;;;;;;;5.93;2.00;;;11.40;99.90;;;;;;4993954;28;20289;-48
2022/10/07 00:03:38;;;;;;;10.13;2.37;;;11.40;99.90;;;;;;4994185;28;20225;-50
2022/10/07 00:06:10;;;;;;;7.77;1.73;;;11.30;99.90;;;;;;4994080;28;20277;-50
2022/10/07 00:08:40;;;;;;;8.70;2.07;;;11.30;99.90;;;;;;4993790;28;20263;-48
2022/10/07 00:11:11;;;;;;;7.40;2.20;;;11.30;99.90;;;;;;4993639;28;20257;-50
2022/10/07 00:13:42;;;;;;;6.83;2.23;;;11.20;99.90;;;;;;4993883;28;20635;-51
2022/10/07 00:16:13;;;;;;;6.97;2.10;;;11.30;99.90;;;;;;4994127;28;20212;-49
2022/10/07 00:18:42;;;;;;;8.20;2.47;;;11.30;99.90;;;;;;4993691;28;20227;-51
2022/10/07 00:21:12;;;;;;;8.67;2.43;;;11.30;99.90;;;;;;4974989;28;20588;-50
2022/10/07 00:23:41;;;;;;;6.17;1.90;;;11.20;99.90;;;;;;4974491;28;20224;-51
2022/10/07 00:26:11;;;;;;;5.53;2.10;;;11.20;99.90;;;;;;4988397;28;20299;-49
2022/10/07 00:28:40;;;;;;;7.30;1.87;;;11.20;99.90;;;;;;4993836;28;20232;-49
2022/10/07 00:31:10;;;;;;;7.43;2.23;;;11.10;99.90;;;;;;4993637;28;20648;-52
2022/10/07 00:33:41;;;;;;;7.43;2.63;;;11.20;99.90;;;;;;4989601;28;20297;-51
2022/10/07 00:36:10;;;;;;;4.40;1.77;;;11.10;99.90;;;;;;4991730;28;20229;-50
2022/10/07 00:38:41;;;;;;;5.67;2.17;;;11.10;99.90;;;;;;4993586;28;20302;-48
2022/10/07 00:41:16;;;;;;;8.33;2.70;;;11.10;99.90;;;;;;4993598;28;20714;-50
2022/10/07 00:43:45;;;;;;;8.17;2.13;;;11.10;99.90;;;;;;4993705;28;20224;-50
2022/10/07 00:46:22;;;;;;;7.57;2.67;;;11.10;99.90;;;;;;4993163;28;20585;-50
2022/10/07 00:48:53;;;;;;;5.37;2.00;;;11.10;99.90;;;;;;4993354;28;20231;-49
2022/10/07 00:51:21;;;;;;;7.33;2.30;;;11.10;99.90;;;;;;4993658;28;20232;-50
2022/10/07 00:53:52;;;;;;;7.50;2.33;;;11.00;99.90;;;;;;4993192;28;20220;-49
2022/10/07 00:56:21;;;;;;;5.53;1.90;;;11.00;99.90;;;;;;4993590;28;20306;-48
2022/10/07 00:58:51;;;;;;;10.47;2.60;;;11.00;99.90;;;;;;4993223;28;20225;-51
2022/10/07 01:01:20;;;;;;;5.50;2.07;;;11.00;99.90;;;;;;4992765;28;20234;-50
2022/10/07 01:03:48;;;;;;;9.33;2.73;;;11.00;99.90;;;;;;4991914;28;20228;-48
2022/10/07 01:06:19;;;;;;;9.03;2.33;;;11.00;99.90;;;;;;4992071;28;20243;-50
2022/10/07 01:08:48;;;;;;;7.73;2.47;;;10.90;99.90;;;;;;4993035;28;20696;-47
2022/10/07 01:11:31;;;;;;;8.77;2.50;;;10.90;99.90;;;;;;4991806;28;20258;-50
2022/10/07 01:14:09;;;;;;;5.27;2.23;;;10.90;99.90;;;;;;4993287;28;20231;-50
2022/10/07 01:16:46;;;;;;;6.03;2.47;;;10.90;99.90;;;;;;4993367;28;20235;-47
2022/10/07 01:19:33;;;;;;;10.50;2.63;;;10.90;99.90;;;;;;4985904;28;20687;-50
2022/10/07 01:22:15;;;;;;;7.40;2.60;;;10.90;99.90;;;;;;4992756;28;20228;-50
2022/10/07 01:24:48;;;;;;;7.43;2.43;;;10.90;99.90;;;;;;4991793;28;20251;-50
2022/10/07 01:27:19;;;;;;;6.77;2.57;;;10.90;99.90;;;;;;4993097;28;20642;-49
2022/10/07 01:29:54;;;;;;;7.80;2.77;;;10.90;99.90;;;;;;4991723;28;20229;-48
2022/10/07 01:32:30;;;;;;;8.83;2.77;;;10.90;99.90;;;;;;4990948;28;20589;-50
2022/10/07 01:35:04;;;;;;;7.40;2.70;;;10.80;99.90;;;;;;4991395;28;20227;-51
2022/10/07 01:37:36;;;;;;;8.47;3.10;;;10.80;99.90;;;;;;4977809;28;20219;-51
2022/10/07 01:40:09;;;;;;;8.20;2.97;;;10.80;99.90;;;;;;4992921;28;20222;-47
2022/10/07 01:42:39;;;;;;;10.60;3.13;;;10.70;99.90;;;;;;4992886;28;20235;-47
2022/10/07 01:45:11;;;;;;;7.13;3.10;;;10.70;99.90;;;;;;4992989;28;20578;-50
2022/10/07 01:47:41;;;;;;;6.63;3.03;;;10.70;99.90;;;;;;4990769;28;20231;-48
2022/10/07 01:50:12;;;;;;;9.87;3.23;;;10.70;99.90;;;;;;4991144;28;20690;-51
2022/10/07 01:52:59;;;;;;;8.23;3.10;;;10.70;99.90;;;;;;4992709;28;20267;-47
2022/10/07 01:55:42;;;;;;;7.07;2.93;;;10.60;99.90;;;;;;4991092;28;20232;-48
2022/10/07 01:58:28;;;;;;;11.03;3.37;;;10.60;99.90;;;;;;4975327;28;20236;-51
2022/10/07 02:01:06;;;;;;;7.73;3.07;;;10.60;99.90;;;;;;4991032;28;20239;-50
2022/10/07 02:03:53;;;;;;;7.40;3.53;;;10.60;99.90;;;;;;4992559;28;20218;-48
2022/10/07 02:06:32;;;;;;;7.83;3.17;;;10.50;99.90;;;;;;4973723;28;20795;-51
2022/10/07 02:09:07;;;;;;;6.90;3.23;;;10.50;99.90;;;;;;4973437;28;20688;-48
2022/10/07 02:11:40;;;;;;;7.17;3.27;;;10.50;99.90;;;;;;4973217;28;20252;-50
2022/10/07 02:14:14;;;;;;;7.33;3.30;;;10.50;99.90;;;;;;4972094;28;20233;-48
2022/10/07 02:16:44;;;;;;;8.33;3.20;;;10.50;99.90;;;;;;4977782;28;20232;-49
2022/10/07 02:19:15;;;;;;;12.10;3.47;;;10.50;99.90;;;;;;5007653;28;20697;-51
2022/10/07 02:21:48;;;;;;;7.30;3.53;;;10.50;99.90;;;;;;4992432;28;20282;-48
2022/10/07 02:24:18;;;;;;;7.57;3.10;;;10.50;99.90;;;;;;4991449;28;20234;-49
2022/10/07 02:26:47;;;;;;;9.17;3.37;;;10.50;99.90;;;;;;4990983;28;20233;-48
2022/10/07 02:29:21;;;;;;;7.43;3.20;;;10.50;99.90;;;;;;4991204;28;20323;-49
2022/10/07 02:31:54;;;;;;;7.23;3.00;;;10.50;99.90;;;;;;4990875;28;20259;-48
2022/10/07 02:34:24;;;;;;;7.23;3.17;;;10.40;99.90;;;;;;4991131;28;20323;-49
2022/10/07 02:36:56;;;;;;;8.13;3.30;;;10.40;99.90;;;;;;4995066;28;20323;-50
2022/10/07 02:39:26;;;;;;;10.13;3.10;;;10.40;99.90;;;;;;4994486;28;20228;-50
2022/10/07 02:42:02;;;;;;;9.27;3.10;;;10.40;99.90;;;;;;4994462;28;20559;-47
2022/10/07 02:44:36;;;;;;;5.90;2.70;;;10.40;99.90;;;;;;4994343;28;20267;-49
2022/10/07 02:47:13;;;;;;;10.33;2.87;;;10.40;99.90;;;;;;4983696;28;20239;-50
2022/10/07 02:49:44;;;;;;;6.53;2.80;;;10.40;99.90;;;;;;4993991;28;20313;-50
2022/10/07 02:52:15;;;;;;;9.63;3.33;;;10.40;99.90;;;;;;4994168;28;20643;-49
2022/10/07 02:54:48;;;;;;;5.60;2.60;;;10.30;99.90;;;;;;4994138;28;20766;-49
2022/10/07 02:57:19;;;;;;;8.00;3.47;;;10.30;99.90;;;;;;4994497;28;20227;-50
2022/10/07 02:59:51;;;;;;;7.83;2.97;;;10.30;99.90;;;;;;4993834;28;20235;-49
2022/10/07 03:02:26;;;;;;;6.60;2.97;;;10.30;99.90;;;;;;4993986;28;20306;-48
2022/10/07 03:04:56;;;;;;;4.90;2.67;;;10.30;99.90;;;;;;4994156;28;20236;-48
2022/10/07 03:07:24;;;;;;;8.27;2.90;;;10.30;99.90;;;;;;4994035;28;20232;-48
2022/10/07 03:09:53;;;;;;;8.03;3.03;;;10.30;99.90;;;;;;4993734;28;20267;-49
2022/10/07 03:12:21;;;;;;;8.23;2.87;;;10.20;99.90;;;;;;4995452;28;20243;-48
2022/10/07 03:14:51;;;;;;;7.83;2.70;;;10.20;99.90;;;;;;4993802;28;20237;-50
2022/10/07 03:17:20;;;;;;;8.37;3.20;;;10.20;99.90;;;;;;4993979;28;20232;-47
2022/10/07 03:19:49;;;;;;;6.17;2.87;;;10.20;99.90;;;;;;4993857;28;20306;-48
2022/10/07 03:22:17;;;;;;;7.10;2.43;;;10.20;99.90;;;;;;4994011;28;20228;-50
2022/10/07 03:24:45;;;;;;;5.60;2.50;;;10.20;99.90;;;;;;4994838;28;20228;-50
2022/10/07 03:27:13;;;;;;;8.47;3.17;;;10.20;99.90;;;;;;4995116;28;20278;-49
2022/10/07 03:29:41;;;;;;;6.77;2.83;;;10.20;99.90;;;;;;4993121;28;20230;-48
2022/10/07 03:32:11;;;;;;;6.20;2.60;;;10.20;99.90;;;;;;4992951;28;20237;-47
2022/10/07 03:34:39;;;;;;;7.93;2.63;;;10.20;99.90;;;;;;4993423;28;20234;-49
2022/10/07 03:37:08;;;;;;;6.60;2.60;;;10.10;99.90;;;;;;4994843;28;20708;-48
2022/10/07 03:39:36;;;;;;;11.40;2.43;;;10.20;99.90;;;;;;4994768;28;20227;-48
2022/10/07 03:42:05;;;;;;;6.97;2.30;;;10.10;99.90;;;;;;4993492;28;20262;-48
2022/10/07 03:44:34;;;;;;;5.43;2.40;;;10.10;99.90;;;;;;4993321;28;20706;-48
2022/10/07 03:47:03;;;;;;;7.60;2.60;;;10.10;99.90;;;;;;4992535;28;20721;-50
2022/10/07 03:49:40;;;;;;;7.20;2.83;;;10.00;99.90;;;;;;4992906;28;20271;-48
2022/10/07 03:52:08;;;;;;;7.67;2.50;;;10.10;99.90;;;;;;4993696;28;20236;-48
2022/10/07 03:54:36;;;;;;;6.07;2.33;;;10.00;99.90;;;;;;4993149;28;20228;-49
2022/10/07 03:57:48;;;;;;;7.67;2.73;;;10.00;99.90;;;;;;4993186;28;20745;-48
2022/10/07 03:59:54;;;;;;;7.67;2.60;;;10.00;99.90;;;;;;4991738;28;20235;-50
2022/10/07 04:02:23;;;;;;;7.57;2.43;;;10.00;99.90;;;;;;4994048;28;20234;-49
2022/10/07 04:04:52;;;;;;;7.07;2.60;;;10.00;99.90;;;;;;4993437;28;20705;-50
2022/10/07 04:07:22;;;;;;;8.37;2.50;;;10.00;99.90;;;;;;4993121;28;20223;-49
2022/10/07 04:09:51;;;;;;;6.17;2.40;;;10.00;99.90;;;;;;4992744;28;20314;-48
2022/10/07 04:12:20;;;;;;;8.60;2.40;;;10.00;99.90;;;;;;4992992;28;20590;-47
2022/10/07 04:14:48;;;;;;;7.33;2.10;;;10.00;99.90;;;;;;4992855;28;20230;-49
2022/10/07 04:17:17;;;;;;;5.60;2.37;;;10.00;99.90;;;;;;4992566;28;20255;-50
2022/10/07 04:19:46;;;;;;;7.60;2.00;;;10.00;99.90;;;;;;4992553;28;20230;-50
2022/10/07 04:22:18;;;;;;;6.07;2.40;;;9.90;99.90;;;;;;4992873;28;20305;-48
2022/10/07 04:25:32;;;;;;;7.57;2.77;;;9.90;99.90;;;;;;4992505;28;20609;-50
2022/10/07 04:27:34;;;;;;;5.17;2.00;;;9.90;99.90;;;;;;4992435;28;20737;-51
2022/10/07 04:30:19;;;;;;;7.37;2.27;;;9.80;99.90;;;;;;4988792;28;20227;-47
2022/10/07 04:32:49;;;;;;;7.30;2.80;;;9.80;99.90;;;;;;4987644;28;20360;-50
2022/10/07 04:35:21;;;;;;;5.90;2.63;;;9.80;99.90;;;;;;4990962;28;20477;-49
2022/10/07 04:37:54;;;;;;;6.77;2.40;;;9.80;99.90;;;;;;4993323;28;20686;-50
2022/10/07 04:40:26;;;;;;;5.87;2.57;;;9.80;99.90;;;;;;4992106;28;20254;-48
2022/10/07 04:45:41;;;;;;;7.87;2.97;;;9.80;99.90;;;;;;4991707;28;20576;-49
2022/10/07 04:48:10;;;;;;;6.60;2.77;;;9.60;99.90;;;;;;4991663;28;20311;-47
2022/10/07 04:50:38;;;;;;;8.77;2.23;;;9.60;99.90;;;;;;4992104;28;20317;-47
2022/10/07 04:53:13;;;;;;;9.53;2.93;;;9.60;99.90;;;;;;4993237;28;20218;-47
2022/10/07 04:55:43;;;;;;;8.80;2.97;;;9.70;99.90;;;;;;4992024;28;20769;-47
2022/10/07 04:58:11;;;;;;;9.00;2.97;;;9.60;99.90;;;;;;4993107;28;20247;-50
2022/10/07 05:00:44;;;;;;;7.60;2.77;;;9.60;99.90;;;;;;4991417;28;20256;-47
2022/10/07 05:03:13;;;;;;;7.53;2.80;;;9.60;99.90;;;;;;4989300;28;20292;-47
2022/10/07 05:05:42;;;;;;;8.30;2.93;;;9.60;99.90;;;;;;4991725;28;20231;-47
2022/10/07 05:08:14;;;;;;;7.53;2.77;;;9.60;99.90;;;;;;4992043;28;20234;-47
2022/10/07 05:10:43;;;;;;;7.70;2.70;;;9.60;99.90;;;;;;4992045;28;20756;-49
2022/10/07 05:13:15;;;;;;;6.57;2.33;;;9.60;99.90;;;;;;4992101;28;20325;-47
2022/10/07 05:15:49;;;;;;;6.97;2.93;;;9.60;99.90;;;;;;4991929;28;20313;-49
2022/10/07 05:18:19;;;;;;;8.20;3.10;;;9.60;99.90;;;;;;4991612;28;20226;-50
2022/10/07 05:20:48;;;;;;;4.93;2.57;;;9.60;99.90;;;;;;4990665;28;20234;-50
2022/10/07 05:23:20;;;;;;;7.03;2.53;;;9.60;99.90;;;;;;4991974;28;20226;-49
2022/10/07 05:25:58;;;;;;;5.87;2.90;;;9.60;99.90;;;;;;4991964;28;20230;-48
2022/10/07 05:28:26;;;;;;;10.23;2.70;;;9.60;99.90;;;;;;4993214;28;20585;-48
2022/10/07 05:31:04;;;;;;;7.80;2.63;;;9.60;99.90;;;;;;4990987;28;20666;-50
2022/10/07 05:33:33;;;;;;;7.77;2.90;;;9.50;99.90;;;;;;4991691;28;20219;-48
2022/10/07 05:36:01;;;;;;;11.40;3.10;;;9.50;99.90;;;;;;4991239;28;20223;-50
2022/10/07 05:38:31;;;;;;;6.20;2.53;;;9.50;99.90;;;;;;4991406;28;20268;-48
2022/10/07 05:41:02;;;;;;;9.87;3.00;;;9.50;99.90;;;;;;4991041;28;20222;-47
2022/10/07 05:43:35;;;;;;;8.83;2.83;;;9.50;99.90;;;;;;4991586;28;20230;-47
2022/10/07 05:46:07;;;;;;;9.50;2.93;;;9.50;99.90;;;;;;4991731;28;20717;-49
2022/10/07 05:48:39;;;;;;;8.30;3.03;;;9.50;99.90;;;;;;4991204;28;20230;-49
2022/10/07 05:51:09;;;;;;;7.53;2.40;;;9.50;99.90;;;;;;4991670;28;20226;-48
2022/10/07 05:53:40;;;;;;;11.97;2.70;;;9.40;99.90;;;;;;4991542;28;20238;-48
2022/10/07 05:56:11;;;;;;;7.60;3.20;;;9.50;99.90;;;;;;4992028;28;20257;-50
2022/10/07 05:58:39;;;;;;;8.13;3.40;;;9.50;99.90;;;;;;4991494;28;20642;-49
2022/10/07 06:01:15;;;;;;;7.63;2.73;;;9.50;99.90;;;;;;4992498;28;20239;-50
2022/10/07 06:03:48;;;;;;;9.53;2.90;;;9.50;99.90;;;;;;4991751;28;20320;-48
2022/10/07 06:06:16;;;;;;;9.43;3.17;;;9.50;99.90;;;;;;4992869;28;20760;-48
2022/10/07 06:08:46;;;;;;;12.30;3.13;;;9.60;99.90;;;;;;4991350;28;20238;-49
2022/10/07 06:14:03;;;;;;;7.30;3.13;;;9.60;99.90;;;;;;4995562;28;20289;-49
2022/10/07 06:16:31;;;;;;;12.67;3.57;;;9.60;99.90;;;;;;4994959;28;20234;-48
2022/10/07 06:19:00;;;;;;;8.30;3.40;;;9.60;99.90;;;;;;4994550;28;20700;-49
2022/10/07 06:21:30;;;;;;;7.70;3.27;;;9.60;99.90;;;;;;4994855;28;20231;-47
2022/10/07 06:24:04;;;;;;;10.90;3.73;;;9.70;99.90;;;;;;4996377;28;20645;-49
2022/10/07 06:26:34;;;;;;;8.23;3.27;;;9.80;99.90;;;;;;4994802;28;20256;-48
2022/10/07 06:29:04;;;;;;;9.37;3.20;;;9.90;99.90;;;;;;4996291;28;20251;-48
2022/10/07 06:31:32;;;;;;;13.03;3.23;;;9.90;99.90;;;;;;4993563;28;20640;-46
2022/10/07 06:34:03;;;;;;;9.00;2.97;;;9.90;99.90;;;;;;4995934;28;20317;-48
2022/10/07 06:36:32;;;;;;;9.67;3.47;;;10.00;99.90;;;;;;4994667;28;20319;-48
2022/10/07 06:39:01;;;;;;;15.00;3.97;;;10.10;99.90;;;;;;4994932;28;20665;-49
2022/10/07 06:41:37;;;;;;;12.03;3.13;;;10.20;99.90;;;;;;4994485;28;20235;-49
2022/10/07 06:44:23;;;;;;;6.13;3.33;;;10.20;99.90;;;;;;5011116;28;20234;-48
2022/10/07 06:46:53;;;;;;;11.93;4.17;;;10.30;99.90;;;;;;4993802;28;20257;-48
2022/10/07 06:49:21;;;;;;;10.97;4.13;;;10.40;99.90;;;;;;5010546;28;20598;-49
2022/10/07 06:51:51;;;;;;;10.63;3.50;;;10.40;99.90;;;;;;4995686;28;20278;-49
2022/10/07 06:54:19;;;;;;;8.80;3.40;;;10.50;99.90;;;;;;4994573;28;20588;-50
2022/10/07 06:56:48;;;;;;;7.33;3.30;;;10.50;99.90;;;;;;4994340;28;20230;-47
2022/10/07 06:59:17;;;;;;;9.30;3.30;;;10.70;99.90;;;;;;4994676;28;20262;-47
2022/10/07 07:01:55;;;;;;;6.47;2.80;;;10.80;99.90;;;;;;4993979;28;20241;-47
2022/10/07 07:04:24;;;;;;;7.87;3.03;;;10.90;99.90;;;;;;4994458;28;20227;-47
2022/10/07 07:06:52;;;;;;;6.83;3.30;;;11.00;99.90;;;;;;4994301;28;20228;-50
2022/10/07 07:09:21;;;;;;;6.87;2.80;;;11.10;99.90;;;;;;4994185;28;20352;-51
2022/10/07 07:11:53;;;;;;;7.30;3.03;;;11.20;99.90;;;;;;4994140;28;20251;-50
2022/10/07 07:14:28;;;;;;;7.97;3.23;;;11.30;99.90;;;;;;4994026;28;20576;-47
2022/10/07 07:17:04;;;;;;;8.73;3.27;;;11.50;99.90;;;;;;4993827;28;20269;-48
2022/10/07 07:19:32;;;;;;;10.73;3.30;;;11.60;99.90;;;;;;4993560;28;20235;-48
2022/10/07 07:22:00;;;;;;;8.43;3.03;;;11.70;99.90;;;;;;4993650;28;20263;-49
2022/10/07 07:24:28;;;;;;;9.80;3.00;;;11.80;99.90;;;;;;4993795;28;20574;-50
2022/10/07 07:26:59;;;;;;;8.63;3.10;;;11.90;99.90;;;;;;4993926;28;20228;-48
2022/10/07 07:29:30;;;;;;;10.90;2.65;;;12.10;99.90;;;;;;4993668;28;20228;-50
2022/10/07 07:32:03;;;;;;;11.10;2.73;;;12.10;99.90;;;;;;4994840;28;20236;-49
2022/10/07 07:34:35;;;;;;;10.83;3.43;;;12.20;99.90;;;;;;4993628;28;20234;-50
2022/10/07 07:37:03;;;;;;;9.53;3.23;;;12.40;99.90;;;;;;4992735;28;20695;-48
2022/10/07 07:39:43;;;;;;;8.13;2.77;;;12.60;99.90;;;;;;4994982;28;20705;-49
2022/10/07 07:42:17;;;;;;;8.70;2.67;;;12.80;99.90;;;;;;4999175;28;20236;-48
2022/10/07 07:44:45;;;;;;;8.03;2.43;;;12.90;99.90;;;;;;4994361;28;20239;-49
2022/10/07 07:47:16;;;;;;;9.93;3.20;;;12.90;99.90;;;;;;4993340;28;20693;-48
2022/10/07 07:49:46;;;;;;;8.50;3.20;;;13.10;99.90;;;;;;4992976;28;20237;-52
2022/10/07 07:52:21;;;;;;;8.40;2.70;;;13.00;99.90;;;;;;4993541;28;20651;-50
2022/10/07 07:54:51;;;;;;;10.30;2.60;;;12.80;99.90;;;;;;4993319;28;20708;-48
2022/10/07 07:57:20;;;;;;;10.27;3.10;;;12.60;99.90;;;;;;4994667;28;20229;-50
2022/10/07 07:59:48;;;;;;;6.77;2.60;;;12.60;99.90;;;;;;4993123;28;20312;-48
2022/10/07 08:02:19;;;;;;;8.83;2.57;;;12.60;99.90;;;;;;4992862;28;20241;-50
2022/10/07 08:04:49;;;;;;;7.97;2.30;;;12.60;99.90;;;;;;4993152;28;20238;-49
2022/10/07 08:07:18;;;;;;;6.83;2.70;;;12.70;99.90;;;;;;4993228;28;20225;-50
2022/10/07 08:09:49;;;;;;;8.63;2.77;;;12.80;99.90;;;;;;4992934;28;20239;-50
2022/10/07 08:12:22;;;;;;;14.30;2.93;;;12.90;99.90;;;;;;4993145;28;20756;-49
2022/10/07 08:14:52;;;;;;;8.43;2.77;;;13.10;99.90;;;;;;4993010;28;20233;-51
2022/10/07 08:17:20;;;;;;;9.23;2.90;;;13.40;99.90;;;;;;4992830;28;20230;-48
2022/10/07 08:19:49;;;;;;;9.80;2.90;;;13.60;99.90;;;;;;4992691;28;20319;-49
2022/10/07 08:22:18;;;;;;;10.77;2.50;;;13.80;99.90;;;;;;4992902;28;20217;-49
2022/10/07 08:24:50;;;;;;;11.07;2.77;;;14.00;99.90;;;;;;4993071;28;20229;-51
2022/10/07 08:27:21;;;;;;;11.03;2.50;;;14.00;99.90;;;;;;4991723;28;20237;-47
2022/10/07 08:29:50;;;;;;;8.93;3.13;;;14.30;99.90;;;;;;4993706;28;20724;-49
2022/10/07 08:32:18;;;;;;;9.53;2.40;;;14.50;99.90;;;;;;4991203;28;20238;-50
2022/10/07 08:34:46;;;;;;;10.60;2.90;;;14.40;99.90;;;;;;4993752;28;20218;-48
2022/10/07 08:37:14;;;;;;;8.17;2.30;;;14.60;99.90;;;;;;4994044;28;20233;-51
2022/10/07 08:39:42;;;;;;;8.83;2.50;;;14.80;99.90;;;;;;4993366;28;20563;-49
2022/10/07 08:42:16;;;;;;;9.17;2.30;;;15.00;99.90;;;;;;4993815;28;20224;-48
2022/10/07 08:44:48;;;;;;;6.67;1.90;;;15.30;99.90;;;;;;4993575;28;20292;-51
2022/10/07 08:47:22;;;;;;;6.67;2.23;;;15.40;99.90;;;;;;4993752;28;20717;-49
2022/10/07 08:49:59;;;;;;;9.60;2.67;;;15.60;99.90;;;;;;4993408;28;20236;-49
2022/10/07 08:52:43;;;;;;;9.73;2.50;;;15.60;99.90;;;;;;4993618;28;20575;-49
2022/10/07 08:55:18;;;;;;;12.00;2.43;;;15.50;99.90;;;;;;4993959;28;20264;-49
2022/10/07 08:58:03;;;;;;;9.37;2.70;;;15.40;99.90;;;;;;4993308;28;20229;-49
2022/10/07 09:00:40;;;;;;;10.13;2.47;;;15.20;99.90;;;;;;4991978;28;20237;-50
2022/10/07 09:03:19;;;;;;;9.23;2.20;;;15.20;99.90;;;;;;4992728;28;20226;-51
2022/10/07 09:05:54;;;;;;;10.33;2.43;;;15.20;99.90;;;;;;4993047;28;20225;-50
2022/10/07 09:08:27;;;;;;;10.50;2.73;;;15.50;99.90;;;;;;4993199;28;20317;-51
2022/10/07 09:11:14;;;;;;;8.53;2.27;;;15.70;99.90;;;;;;4993327;28;20728;-52
2022/10/07 09:13:46;;;;;;;8.73;2.10;;;15.90;99.90;;;;;;4993063;28;20682;-49
2022/10/07 09:16:21;;;;;;;11.03;2.23;;;16.30;99.90;;;;;;4992017;28;20692;-48
2022/10/07 09:18:53;;;;;;;6.97;1.90;;;16.40;99.90;;;;;;4993268;28;20577;-48
2022/10/07 09:21:24;;;;;;;8.73;2.30;;;16.20;99.90;;;;;;4993586;28;20257;-48
2022/10/07 09:23:56;;;;;;;11.83;2.90;;;16.30;99.90;;;;;;4993211;28;20226;-50
2022/10/07 09:26:26;;;;;;;9.90;2.13;;;16.30;99.90;;;;;;4993273;28;20240;-48
2022/10/07 09:28:54;;;;;;;12.63;2.33;;;16.40;99.90;;;;;;4992766;28;20280;-51
2022/10/07 09:31:25;;;;;;;9.57;2.67;;;16.50;99.90;;;;;;4992901;28;20234;-49
2022/10/07 09:33:53;;;;;;;9.60;2.33;;;16.80;99.90;;;;;;4993400;28;20622;-50
2022/10/07 09:36:21;;;;;;;8.10;2.17;;;17.10;99.90;;;;;;4993140;28;20234;-50
2022/10/07 09:38:51;;;;;;;10.37;2.53;;;17.10;99.90;;;;;;4993582;28;20241;-49
2022/10/07 09:41:22;;;;;;;9.47;2.03;;;17.10;99.90;;;;;;4993085;28;20586;-50
2022/10/07 09:44:04;;;;;;;12.70;2.40;;;17.20;99.90;;;;;;4994115;28;20225;-50
2022/10/07 09:46:42;;;;;;;9.57;2.53;;;17.40;99.90;;;;;;4997102;28;20630;-51
2022/10/07 09:49:30;;;;;;;9.40;2.00;;;17.70;99.90;;;;;;4988902;28;20231;-50
2022/10/07 09:52:00;;;;;;;18.90;2.73;;;17.80;99.90;;;;;;4996833;28;20242;-49
2022/10/07 09:54:30;;;;;;;11.93;2.50;;;17.40;99.90;;;;;;4996727;28;20233;-49
2022/10/07 09:56:59;;;;;;;9.77;2.67;;;17.40;99.90;;;;;;4996716;28;20230;-50
2022/10/07 09:59:30;;;;;;;11.67;2.30;;;17.40;99.90;;;;;;4995390;28;20699;-50
2022/10/07 10:02:03;;;;;;;9.23;2.30;;;17.40;99.90;;;;;;4994862;28;20234;-49
2022/10/07 10:04:34;;;;;;;9.73;2.40;;;17.40;99.90;;;;;;4996450;28;20722;-51
2022/10/07 10:07:05;;;;;;;9.60;2.20;;;17.50;99.90;;;;;;4990483;28;20230;-50
2022/10/07 10:09:34;;;;;;;8.90;2.20;;;17.80;99.90;;;;;;4996508;28;20325;-49
2022/10/07 10:12:11;;;;;;;8.27;2.00;;;18.10;99.90;;;;;;4996431;28;20304;-50
2022/10/07 10:14:51;;;;;;;8.00;1.97;;;18.30;99.90;;;;;;4996428;28;20231;-49
2022/10/07 10:17:29;;;;;;;11.10;2.40;;;18.30;99.90;;;;;;4996578;28;20757;-52
2022/10/07 10:20:27;;;;;;;6.37;2.00;;;18.30;99.90;;;;;;4995974;28;20784;-49
2022/10/07 10:22:56;;;;;;;8.60;2.30;;;18.40;99.90;;;;;;4996683;28;20595;-51
2022/10/07 10:28:38;;;;;;;7.43;2.10;;;18.10;99.90;;;;;;4996230;28;20234;-51
2022/10/07 10:31:15;;;;;;;8.10;2.20;;;17.90;99.90;;;;;;4995793;28;20254;-51
2022/10/07 10:33:50;;;;;;;9.53;2.03;;;18.10;99.90;;;;;;4996189;28;20818;-48
2022/10/07 10:36:21;;;;;;;7.93;2.27;;;18.30;99.90;;;;;;4996105;28;20227;-49
2022/10/07 10:38:59;;;;;;;7.33;2.00;;;18.50;99.90;;;;;;4995695;28;20230;-49
2022/10/07 10:41:35;;;;;;;10.77;2.50;;;18.40;99.90;;;;;;4995527;28;20214;-50
2022/10/07 10:44:32;;;;;;;7.13;2.23;;;18.30;99.90;;;;;;4994040;28;20242;-50
2022/10/07 10:47:06;;;;;;;8.83;2.03;;;18.30;99.90;;;;;;4995796;28;20233;-48
2022/10/07 10:49:41;;;;;;;6.67;2.03;;;18.20;99.90;;;;;;4994291;28;20650;-50
2022/10/07 10:52:29;;;;;;;7.20;1.87;;;18.30;99.90;;;;;;4995777;28;20250;-48
2022/10/07 10:55:21;;;;;;;11.07;2.50;;;18.30;99.90;;;;;;4995141;28;20231;-51
2022/10/07 10:58:01;;;;;;;6.43;1.80;;;18.30;99.90;;;;;;4995288;28;20638;-49
2022/10/07 11:00:37;;;;;;;8.97;2.03;;;18.20;99.90;;;;;;4995181;28;20230;-49
2022/10/07 11:03:31;;;;;;;9.33;2.40;;;18.40;99.90;;;;;;4995508;28;20228;-49
2022/10/07 11:06:04;;;;;;;6.50;2.20;;;18.70;99.90;;;;;;4995422;28;20229;-48
2022/10/07 11:08:36;;;;;;;8.70;2.40;;;18.70;99.90;;;;;;4994891;28;20233;-51
2022/10/07 11:11:07;;;;;;;10.53;2.10;;;18.80;99.90;;;;;;4993504;28;20246;-50
2022/10/07 11:13:40;;;;;;;9.60;2.10;;;18.80;99.90;;;;;;4995133;28;20731;-50
2022/10/07 11:16:11;;;;;;;8.83;2.10;;;18.90;99.90;;;;;;4993340;28;20247;-50
2022/10/07 11:18:44;;;;;;;8.50;2.10;;;19.10;99.90;;;;;;4991003;28;20226;-51
2022/10/07 11:21:19;;;;;;;8.50;2.13;;;19.00;99.90;;;;;;4995184;28;20230;-51
2022/10/07 11:23:54;;;;;;;7.77;2.00;;;19.30;99.90;;;;;;4995261;28;20706;-51
2022/10/07 11:26:28;;;;;;;8.43;2.33;;;19.20;99.90;;;;;;4995098;28;20227;-51
2022/10/07 11:29:13;;;;;;;8.33;2.20;;;19.30;99.90;;;;;;4995251;28;20267;-51
2022/10/07 11:31:45;;;;;;;11.67;2.67;;;19.50;99.90;;;;;;4994620;28;20240;-50
2022/10/07 11:34:17;;;;;;;6.90;2.23;;;19.50;99.90;;;;;;4995194;28;20230;-48
2022/10/07 11:36:56;;;;;;;9.77;2.00;;;19.40;99.90;;;;;;4994893;28;20704;-52
2022/10/07 11:39:25;;;;;;;8.83;2.00;;;19.20;99.90;;;;;;4994788;28;20229;-48
2022/10/07 11:42:00;;;;;;;7.73;2.20;;;19.00;99.90;;;;;;4995182;28;20236;-49
2022/10/07 11:44:32;;;;;;;8.10;2.17;;;18.70;99.90;;;;;;4994765;28;20687;-49
2022/10/07 11:47:02;;;;;;;11.20;2.40;;;18.60;99.90;;;;;;4994506;28;20239;-48
2022/10/07 11:49:36;;;;;;;9.93;2.90;;;18.70;99.90;;;;;;4994686;28;20228;-51
2022/10/07 11:52:08;;;;;;;8.77;2.30;;;18.80;99.90;;;;;;4995019;28;20224;-51
2022/10/07 11:54:42;;;;;;;12.87;2.10;;;18.60;99.90;;;;;;4994501;28;20244;-51
2022/10/07 11:57:21;;;;;;;9.93;2.23;;;18.60;99.90;;;;;;4993800;28;20242;-51
2022/10/07 11:59:56;;;;;;;12.30;2.53;;;18.60;99.90;;;;;;4994586;28;20276;-51
2022/10/07 12:02:40;;;;;;;9.47;2.37;;;18.50;99.90;;;;;;4993903;28;20647;-52
2022/10/07 12:05:47;;;;;;;8.57;2.33;;;18.70;99.90;;;;;;4994591;28;20569;-50
2022/10/07 12:08:30;;;;;;;9.23;2.33;;;18.80;99.90;;;;;;4993901;28;20248;-49
2022/10/07 12:11:44;;;;;;;10.50;2.70;;;18.70;99.90;;;;;;4994142;28;20255;-48
2022/10/07 12:14:35;;;;;;;9.13;2.13;;;18.80;99.90;;;;;;4994101;28;20233;-53
2022/10/07 12:17:29;;;;;;;10.03;2.20;;;18.70;99.90;;;;;;4993804;28;20238;-51
2022/10/07 12:20:45;;;;;;;8.57;2.03;;;18.70;99.90;;;;;;4993216;28;20592;-48
2022/10/07 12:23:50;;;;;;;6.80;1.90;;;18.50;99.90;;;;;;4993738;28;20225;-49
2022/10/07 12:26:51;;;;;;;10.57;2.70;;;18.40;99.90;;;;;;4992869;28;20236;-51
2022/10/07 12:29:49;;;;;;;9.60;2.37;;;18.30;99.90;;;;;;4994293;28;20714;-51
2022/10/07 12:32:41;;;;;;;8.20;2.13;;;18.10;99.90;;;;;;4993481;28;20626;-49
2022/10/07 12:35:45;;;;;;;12.63;2.40;;;18.20;99.90;;;;;;4994304;28;20235;-51
2022/10/07 12:38:26;;;;;;;6.97;2.00;;;18.30;99.90;;;;;;4994156;28;20596;-50
2022/10/07 12:41:23;;;;;;;10.87;2.40;;;18.30;99.90;;;;;;4992650;28;20779;-49
2022/10/07 12:43:59;;;;;;;9.63;2.30;;;18.30;99.90;;;;;;4993745;28;20232;-49
2022/10/07 12:46:33;;;;;;;10.10;2.00;;;18.20;99.90;;;;;;4993503;28;20564;-49
2022/10/07 12:49:04;;;;;;;11.47;2.40;;;18.20;99.90;;;;;;4993515;28;20257;-50
2022/10/07 12:51:38;;;;;;;6.37;2.00;;;18.10;99.90;;;;;;4993604;28;20231;-52
2022/10/07 12:54:14;;;;;;;6.50;2.00;;;18.10;99.90;;;;;;4993590;28;20285;-50
2022/10/07 12:56:44;;;;;;;10.00;2.40;;;18.10;99.90;;;;;;4993432;28;20273;-51
2022/10/07 12:59:48;;;;;;;10.17;2.97;;;18.00;99.90;;;;;;4993600;28;20587;-51
2022/10/07 13:02:49;;;;;;;8.23;1.90;;;17.90;99.90;;;;;;4993215;28;20257;-49
2022/10/07 13:05:56;;;;;;;6.97;2.10;;;18.00;99.90;;;;;;4993453;28;20243;-50
2022/10/07 13:09:04;;;;;;;7.33;1.90;;;18.00;99.90;;;;;;4993390;28;20223;-52
2022/10/07 13:11:54;;;;;;;9.67;2.10;;;18.10;99.90;;;;;;4993180;28;20581;-50
2022/10/07 13:14:26;;;;;;;10.07;2.30;;;18.00;99.90;;;;;;4991873;28;20717;-51
2022/10/07 13:17:03;;;;;;;8.47;1.83;;;18.10;99.90;;;;;;4990765;28;20231;-51
2022/10/07 13:19:38;;;;;;;8.73;2.43;;;18.10;99.90;;;;;;4992420;28;20785;-50
2022/10/07 13:22:13;;;;;;;7.87;2.33;;;18.20;99.90;;;;;;4992919;28;20222;-52
2022/10/07 13:24:48;;;;;;;7.87;1.77;;;18.20;99.90;;;;;;4992264;28;20230;-50
2022/10/07 13:27:19;;;;;;;9.37;2.00;;;18.20;99.90;;;;;;4990594;28;20281;-51
2022/10/07 13:29:49;;;;;;;9.10;2.03;;;18.10;99.90;;;;;;4990669;28;20246;-51